Rechercher aéroport 
image banner adimage banner adimage banner ad
image banner ad

CA71 - Horse Shoe A Ranch

Situé à Drytown, United States

ICAO - CA71, IATA -

Données fournies par Airmate  

Information générale

Coordonnées: N38°26'24" W120°53'13"
Élévation : 750 feet MSL.
Variation magnétique : 16° East
Voir autres Aéroports à California

Données opérationnelles

Special qualification required
Heure actuelle UTC:
Heure actuelle locale:
METAR: KJAQ 020435Z AUTO 34005KT 10SM CLR 23/07 A3008 RMK AO1 T02320066
Voir NOTAMs / SUP AIP / TFR affectant cet aéroport [VIEW]
Fréquences de communication: [VIEW]

Pistes:

Identifiant RWYQFULongueur (ft)Largeur (ft)SurfaceLDA (ft)
14300050EARTH
32300050EARTH

Coordonnées de l'aéroport

Adresse: Drytown United States

Vue satellite de CA71